sensor_id;sensor_type;location;lat;lon;timestamp;P1;durP1;ratioP1;P2;durP2;ratioP2
62071;SDS011;48031;48.542;13.232;2023-08-17T00:01:43;3.65;;;2.88;;
62071;SDS011;48031;48.542;13.232;2023-08-17T00:06:06;4.68;;;3.80;;
62071;SDS011;48031;48.542;13.232;2023-08-17T00:10:28;4.72;;;3.60;;
62071;SDS011;48031;48.542;13.232;2023-08-17T00:14:52;3.20;;;2.90;;
62071;SDS011;48031;48.542;13.232;2023-08-17T00:19:15;4.32;;;2.83;;
62071;SDS011;48031;48.542;13.232;2023-08-17T00:23:39;3.15;;;2.85;;
62071;SDS011;48031;48.542;13.232;2023-08-17T00:28:01;3.15;;;2.85;;
62071;SDS011;48031;48.542;13.232;2023-08-17T00:32:24;3.30;;;3.00;;
62071;SDS011;48031;48.542;13.232;2023-08-17T00:36:47;2.95;;;2.65;;
62071;SDS011;48031;48.542;13.232;2023-08-17T00:41:09;3.30;;;3.00;;
62071;SDS011;48031;48.542;13.232;2023-08-17T00:45:32;3.55;;;2.95;;
62071;SDS011;48031;48.542;13.232;2023-08-17T00:49:56;3.45;;;3.15;;
62071;SDS011;48031;48.542;13.232;2023-08-17T00:54:22;3.03;;;2.60;;
62071;SDS011;48031;48.542;13.232;2023-08-17T00:58:45;3.20;;;2.85;;
62071;SDS011;48031;48.542;13.232;2023-08-17T01:03:08;5.20;;;4.43;;
62071;SDS011;48031;48.542;13.232;2023-08-17T01:07:32;5.95;;;4.03;;
62071;SDS011;48031;48.542;13.232;2023-08-17T01:16:38;4.67;;;3.30;;
62071;SDS011;48031;48.542;13.232;2023-08-17T01:21:04;3.55;;;3.22;;
62071;SDS011;48031;48.542;13.232;2023-08-17T01:25:32;4.00;;;3.60;;
62071;SDS011;48031;48.542;13.232;2023-08-17T01:29:55;4.90;;;4.40;;
62071;SDS011;48031;48.542;13.232;2023-08-17T01:34:20;4.43;;;3.90;;
62071;SDS011;48031;48.542;13.232;2023-08-17T01:38:50;4.68;;;3.38;;
62071;SDS011;48031;48.542;13.232;2023-08-17T01:43:13;3.65;;;3.25;;
62071;SDS011;48031;48.542;13.232;2023-08-17T01:47:37;6.18;;;3.90;;
62071;SDS011;48031;48.542;13.232;2023-08-17T01:52:00;6.60;;;4.38;;
62071;SDS011;48031;48.542;13.232;2023-08-17T01:56:23;6.82;;;4.63;;
62071;SDS011;48031;48.542;13.232;2023-08-17T02:00:46;5.80;;;5.00;;
62071;SDS011;48031;48.542;13.232;2023-08-17T02:05:09;5.90;;;4.82;;
62071;SDS011;48031;48.542;13.232;2023-08-17T02:09:33;4.50;;;4.10;;
62071;SDS011;48031;48.542;13.232;2023-08-17T02:13:55;6.72;;;3.45;;
62071;SDS011;48031;48.542;13.232;2023-08-17T02:18:18;4.35;;;3.25;;
62071;SDS011;48031;48.542;13.232;2023-08-17T02:22:41;5.18;;;4.65;;
62071;SDS011;48031;48.542;13.232;2023-08-17T02:27:04;8.38;;;5.72;;
62071;SDS011;48031;48.542;13.232;2023-08-17T02:31:27;6.65;;;5.35;;
62071;SDS011;48031;48.542;13.232;2023-08-17T02:35:50;5.72;;;4.50;;
62071;SDS011;48031;48.542;13.232;2023-08-17T02:40:13;4.40;;;4.00;;
62071;SDS011;48031;48.542;13.232;2023-08-17T02:44:36;6.45;;;4.53;;
62071;SDS011;48031;48.542;13.232;2023-08-17T02:48:58;5.28;;;4.78;;
62071;SDS011;48031;48.542;13.232;2023-08-17T02:53:22;4.30;;;3.90;;
62071;SDS011;48031;48.542;13.232;2023-08-17T02:57:44;4.13;;;3.45;;
62071;SDS011;48031;48.542;13.232;2023-08-17T03:02:08;4.32;;;3.08;;
62071;SDS011;48031;48.542;13.232;2023-08-17T03:06:31;4.63;;;3.20;;
62071;SDS011;48031;48.542;13.232;2023-08-17T03:10:55;6.03;;;4.38;;
62071;SDS011;48031;48.542;13.232;2023-08-17T03:15:18;4.63;;;4.05;;
62071;SDS011;48031;48.542;13.232;2023-08-17T03:19:44;4.50;;;3.65;;
62071;SDS011;48031;48.542;13.232;2023-08-17T03:24:10;4.70;;;3.78;;
62071;SDS011;48031;48.542;13.232;2023-08-17T03:28:34;5.18;;;4.07;;
62071;SDS011;48031;48.542;13.232;2023-08-17T03:32:58;4.90;;;3.88;;
62071;SDS011;48031;48.542;13.232;2023-08-17T03:37:21;5.18;;;4.28;;
62071;SDS011;48031;48.542;13.232;2023-08-17T03:41:45;3.83;;;3.30;;
62071;SDS011;48031;48.542;13.232;2023-08-17T03:46:08;3.88;;;3.58;;
62071;SDS011;48031;48.542;13.232;2023-08-17T03:50:32;4.43;;;3.22;;
62071;SDS011;48031;48.542;13.232;2023-08-17T03:54:56;4.22;;;3.65;;
62071;SDS011;48031;48.542;13.232;2023-08-17T03:59:20;4.10;;;3.03;;
62071;SDS011;48031;48.542;13.232;2023-08-17T04:03:44;4.45;;;3.63;;
62071;SDS011;48031;48.542;13.232;2023-08-17T04:08:06;4.03;;;3.38;;
62071;SDS011;48031;48.542;13.232;2023-08-17T04:12:30;4.60;;;4.13;;
62071;SDS011;48031;48.542;13.232;2023-08-17T04:16:54;5.15;;;4.65;;
62071;SDS011;48031;48.542;13.232;2023-08-17T04:21:20;5.22;;;4.45;;
62071;SDS011;48031;48.542;13.232;2023-08-17T04:25:46;5.55;;;4.53;;
62071;SDS011;48031;48.542;13.232;2023-08-17T04:30:10;6.03;;;5.13;;
62071;SDS011;48031;48.542;13.232;2023-08-17T04:34:37;4.50;;;4.05;;
62071;SDS011;48031;48.542;13.232;2023-08-17T04:38:59;5.38;;;4.25;;
62071;SDS011;48031;48.542;13.232;2023-08-17T04:43:22;7.80;;;4.60;;
62071;SDS011;48031;48.542;13.232;2023-08-17T04:47:46;5.70;;;4.93;;
62071;SDS011;48031;48.542;13.232;2023-08-17T04:52:11;7.40;;;5.15;;
62071;SDS011;48031;48.542;13.232;2023-08-17T04:56:36;6.47;;;5.22;;
62071;SDS011;48031;48.542;13.232;2023-08-17T05:01:00;6.35;;;5.60;;
62071;SDS011;48031;48.542;13.232;2023-08-17T05:05:24;6.10;;;5.30;;
62071;SDS011;48031;48.542;13.232;2023-08-17T05:09:48;5.03;;;4.47;;
62071;SDS011;48031;48.542;13.232;2023-08-17T05:14:13;5.93;;;5.25;;
62071;SDS011;48031;48.542;13.232;2023-08-17T05:18:37;7.20;;;5.80;;
62071;SDS011;48031;48.542;13.232;2023-08-17T05:23:03;5.75;;;5.15;;
62071;SDS011;48031;48.542;13.232;2023-08-17T05:27:26;6.13;;;5.40;;
62071;SDS011;48031;48.542;13.232;2023-08-17T05:31:51;9.50;;;7.05;;
62071;SDS011;48031;48.542;13.232;2023-08-17T05:36:17;6.72;;;5.70;;
62071;SDS011;48031;48.542;13.232;2023-08-17T05:40:40;6.35;;;5.75;;
62071;SDS011;48031;48.542;13.232;2023-08-17T05:45:04;7.93;;;5.38;;
62071;SDS011;48031;48.542;13.232;2023-08-17T05:49:28;7.97;;;6.03;;
62071;SDS011;48031;48.542;13.232;2023-08-17T05:53:52;6.75;;;6.05;;
62071;SDS011;48031;48.542;13.232;2023-08-17T05:58:15;8.07;;;5.75;;
62071;SDS011;48031;48.542;13.232;2023-08-17T06:02:39;7.45;;;5.85;;
62071;SDS011;48031;48.542;13.232;2023-08-17T06:07:05;7.82;;;6.35;;
62071;SDS011;48031;48.542;13.232;2023-08-17T06:11:29;7.85;;;6.05;;
62071;SDS011;48031;48.542;13.232;2023-08-17T06:15:51;6.88;;;6.00;;
62071;SDS011;48031;48.542;13.232;2023-08-17T06:20:14;7.93;;;6.85;;
62071;SDS011;48031;48.542;13.232;2023-08-17T06:24:36;8.88;;;6.93;;
62071;SDS011;48031;48.542;13.232;2023-08-17T06:28:59;7.43;;;6.60;;
62071;SDS011;48031;48.542;13.232;2023-08-17T06:33:23;7.97;;;6.80;;
62071;SDS011;48031;48.542;13.232;2023-08-17T06:37:45;9.75;;;6.65;;
62071;SDS011;48031;48.542;13.232;2023-08-17T06:42:09;9.55;;;6.70;;
62071;SDS011;48031;48.542;13.232;2023-08-17T06:46:32;9.25;;;7.25;;
62071;SDS011;48031;48.542;13.232;2023-08-17T06:50:55;8.20;;;7.18;;
62071;SDS011;48031;48.542;13.232;2023-08-17T06:55:18;7.20;;;6.10;;
62071;SDS011;48031;48.542;13.232;2023-08-17T06:59:41;8.20;;;7.15;;
62071;SDS011;48031;48.542;13.232;2023-08-17T07:04:07;6.93;;;6.18;;
62071;SDS011;48031;48.542;13.232;2023-08-17T07:08:29;8.20;;;7.20;;
62071;SDS011;48031;48.542;13.232;2023-08-17T07:12:52;7.13;;;6.18;;
62071;SDS011;48031;48.542;13.232;2023-08-17T07:17:14;6.80;;;6.15;;
62071;SDS011;48031;48.542;13.232;2023-08-17T07:21:38;8.75;;;7.07;;
62071;SDS011;48031;48.542;13.232;2023-08-17T07:26:02;7.00;;;6.07;;
62071;SDS011;48031;48.542;13.232;2023-08-17T07:30:25;11.85;;;7.30;;
62071;SDS011;48031;48.542;13.232;2023-08-17T07:34:49;7.45;;;6.68;;
62071;SDS011;48031;48.542;13.232;2023-08-17T07:39:12;6.82;;;6.13;;
62071;SDS011;48031;48.542;13.232;2023-08-17T07:43:35;8.35;;;7.45;;
62071;SDS011;48031;48.542;13.232;2023-08-17T07:47:58;6.85;;;6.13;;
62071;SDS011;48031;48.542;13.232;2023-08-17T07:52:21;8.60;;;7.05;;
62071;SDS011;48031;48.542;13.232;2023-08-17T07:56:44;7.72;;;6.47;;
62071;SDS011;48031;48.542;13.232;2023-08-17T08:01:07;7.18;;;6.43;;
62071;SDS011;48031;48.542;13.232;2023-08-17T08:05:30;8.25;;;6.70;;
62071;SDS011;48031;48.542;13.232;2023-08-17T08:09:53;8.35;;;6.05;;
62071;SDS011;48031;48.542;13.232;2023-08-17T08:14:16;8.13;;;6.32;;
62071;SDS011;48031;48.542;13.232;2023-08-17T08:18:39;7.93;;;6.32;;
62071;SDS011;48031;48.542;13.232;2023-08-17T08:23:02;9.15;;;7.03;;
62071;SDS011;48031;48.542;13.232;2023-08-17T08:27:24;8.90;;;7.05;;
62071;SDS011;48031;48.542;13.232;2023-08-17T08:31:47;9.55;;;6.90;;
62071;SDS011;48031;48.542;13.232;2023-08-17T08:36:11;8.80;;;6.85;;
62071;SDS011;48031;48.542;13.232;2023-08-17T08:40:33;6.95;;;6.25;;
62071;SDS011;48031;48.542;13.232;2023-08-17T08:45:00;6.63;;;5.78;;
62071;SDS011;48031;48.542;13.232;2023-08-17T08:49:25;9.07;;;6.30;;
62071;SDS011;48031;48.542;13.232;2023-08-17T08:54:00;8.65;;;7.15;;
62071;SDS011;48031;48.542;13.232;2023-08-17T08:58:26;7.30;;;6.13;;
62071;SDS011;48031;48.542;13.232;2023-08-17T09:02:56;6.93;;;5.80;;
62071;SDS011;48031;48.542;13.232;2023-08-17T09:07:22;7.85;;;6.80;;
62071;SDS011;48031;48.542;13.232;2023-08-17T09:11:46;6.82;;;6.15;;
62071;SDS011;48031;48.542;13.232;2023-08-17T09:16:10;7.38;;;5.65;;
62071;SDS011;48031;48.542;13.232;2023-08-17T09:20:35;8.23;;;6.15;;
62071;SDS011;48031;48.542;13.232;2023-08-17T09:25:05;7.18;;;6.25;;
62071;SDS011;48031;48.542;13.232;2023-08-17T09:29:28;6.40;;;5.80;;
62071;SDS011;48031;48.542;13.232;2023-08-17T09:33:51;6.85;;;6.15;;
62071;SDS011;48031;48.542;13.232;2023-08-17T09:38:16;7.18;;;6.28;;
62071;SDS011;48031;48.542;13.232;2023-08-17T09:42:40;6.28;;;5.68;;
62071;SDS011;48031;48.542;13.232;2023-08-17T09:47:06;7.70;;;6.07;;
62071;SDS011;48031;48.542;13.232;2023-08-17T09:51:30;5.80;;;5.20;;
62071;SDS011;48031;48.542;13.232;2023-08-17T09:55:58;5.93;;;5.32;;
62071;SDS011;48031;48.542;13.232;2023-08-17T10:00:28;6.68;;;5.55;;
62071;SDS011;48031;48.542;13.232;2023-08-17T10:04:53;5.70;;;5.15;;
62071;SDS011;48031;48.542;13.232;2023-08-17T10:09:24;6.50;;;4.65;;
62071;SDS011;48031;48.542;13.232;2023-08-17T10:18:27;7.35;;;4.65;;
62071;SDS011;48031;48.542;13.232;2023-08-17T10:23:01;5.85;;;4.72;;
62071;SDS011;48031;48.542;13.232;2023-08-17T10:27:27;3.80;;;3.50;;
62071;SDS011;48031;48.542;13.232;2023-08-17T10:31:37;3.95;;;3.65;;
62071;SDS011;48031;48.542;13.232;2023-08-17T10:36:04;4.88;;;4.38;;
62071;SDS011;48031;48.542;13.232;2023-08-17T10:40:28;4.32;;;3.92;;
62071;SDS011;48031;48.542;13.232;2023-08-17T10:45:27;4.03;;;3.63;;
62071;SDS011;48031;48.542;13.232;2023-08-17T10:49:33;4.40;;;4.00;;
62071;SDS011;48031;48.542;13.232;2023-08-17T10:53:42;3.80;;;3.50;;
62071;SDS011;48031;48.542;13.232;2023-08-17T10:57:45;4.32;;;3.75;;
62071;SDS011;48031;48.542;13.232;2023-08-17T11:01:48;4.63;;;3.70;;
62071;SDS011;48031;48.542;13.232;2023-08-17T11:05:54;3.83;;;3.53;;
62071;SDS011;48031;48.542;13.232;2023-08-17T11:09:59;4.10;;;3.60;;
62071;SDS011;48031;48.542;13.232;2023-08-17T11:14:03;3.75;;;3.33;;
62071;SDS011;48031;48.542;13.232;2023-08-17T11:18:06;3.55;;;3.33;;
62071;SDS011;48031;48.542;13.232;2023-08-17T11:22:11;3.72;;;3.42;;
62071;SDS011;48031;48.542;13.232;2023-08-17T11:26:17;3.70;;;3.40;;
62071;SDS011;48031;48.542;13.232;2023-08-17T11:30:40;3.80;;;3.50;;
62071;SDS011;48031;48.542;13.232;2023-08-17T11:34:50;3.70;;;3.40;;
62071;SDS011;48031;48.542;13.232;2023-08-17T11:38:53;3.58;;;3.28;;
62071;SDS011;48031;48.542;13.232;2023-08-17T11:42:55;3.40;;;3.17;;
62071;SDS011;48031;48.542;13.232;2023-08-17T11:46:58;3.55;;;3.17;;
62071;SDS011;48031;48.542;13.232;2023-08-17T11:51:03;3.50;;;3.20;;
62071;SDS011;48031;48.542;13.232;2023-08-17T11:55:10;3.67;;;3.38;;
62071;SDS011;48031;48.542;13.232;2023-08-17T11:59:23;3.80;;;3.50;;
62071;SDS011;48031;48.542;13.232;2023-08-17T12:03:26;3.33;;;3.13;;
62071;SDS011;48031;48.542;13.232;2023-08-17T12:07:28;4.00;;;3.70;;
62071;SDS011;48031;48.542;13.232;2023-08-17T12:11:31;3.53;;;3.33;;
62071;SDS011;48031;48.542;13.232;2023-08-17T12:15:35;4.03;;;3.50;;
62071;SDS011;48031;48.542;13.232;2023-08-17T12:19:38;3.83;;;3.53;;
62071;SDS011;48031;48.542;13.232;2023-08-17T12:23:40;3.38;;;3.08;;
62071;SDS011;48031;48.542;13.232;2023-08-17T12:27:43;3.58;;;3.28;;
62071;SDS011;48031;48.542;13.232;2023-08-17T12:31:51;3.88;;;3.40;;
62071;SDS011;48031;48.542;13.232;2023-08-17T12:35:54;3.63;;;3.08;;
62071;SDS011;48031;48.542;13.232;2023-08-17T12:39:58;3.13;;;2.93;;
62071;SDS011;48031;48.542;13.232;2023-08-17T12:44:03;3.15;;;2.95;;
62071;SDS011;48031;48.542;13.232;2023-08-17T12:48:06;3.70;;;3.40;;
62071;SDS011;48031;48.542;13.232;2023-08-17T12:52:08;4.93;;;3.05;;
62071;SDS011;48031;48.542;13.232;2023-08-17T12:56:10;3.30;;;3.10;;
62071;SDS011;48031;48.542;13.232;2023-08-17T13:00:13;3.75;;;3.00;;
62071;SDS011;48031;48.542;13.232;2023-08-17T13:04:16;3.30;;;3.00;;
62071;SDS011;48031;48.542;13.232;2023-08-17T13:08:17;3.45;;;3.15;;
62071;SDS011;48031;48.542;13.232;2023-08-17T13:12:20;3.63;;;3.22;;
62071;SDS011;48031;48.542;13.232;2023-08-17T13:16:22;3.50;;;3.20;;
62071;SDS011;48031;48.542;13.232;2023-08-17T13:20:24;3.83;;;3.53;;
62071;SDS011;48031;48.542;13.232;2023-08-17T13:24:27;3.40;;;3.20;;
62071;SDS011;48031;48.542;13.232;2023-08-17T13:28:29;3.75;;;3.45;;
62071;SDS011;48031;48.542;13.232;2023-08-17T13:32:34;3.75;;;3.42;;
62071;SDS011;48031;48.542;13.232;2023-08-17T13:36:37;4.05;;;3.65;;
62071;SDS011;48031;48.542;13.232;2023-08-17T13:40:41;3.47;;;3.20;;
62071;SDS011;48031;48.542;13.232;2023-08-17T13:44:43;3.85;;;3.55;;
62071;SDS011;48031;48.542;13.232;2023-08-17T13:48:47;4.72;;;3.35;;
62071;SDS011;48031;48.542;13.232;2023-08-17T13:52:50;3.70;;;3.40;;
62071;SDS011;48031;48.542;13.232;2023-08-17T13:56:53;5.57;;;3.60;;
62071;SDS011;48031;48.542;13.232;2023-08-17T14:00:55;3.97;;;3.67;;
62071;SDS011;48031;48.542;13.232;2023-08-17T14:04:57;3.90;;;3.60;;
62071;SDS011;48031;48.542;13.232;2023-08-17T14:08:59;3.78;;;3.40;;
62071;SDS011;48031;48.542;13.232;2023-08-17T14:13:04;4.18;;;3.75;;
62071;SDS011;48031;48.542;13.232;2023-08-17T14:17:07;4.25;;;3.70;;
62071;SDS011;48031;48.542;13.232;2023-08-17T14:21:10;3.72;;;3.50;;
62071;SDS011;48031;48.542;13.232;2023-08-17T14:25:13;3.83;;;3.53;;
62071;SDS011;48031;48.542;13.232;2023-08-17T14:29:18;3.90;;;3.60;;
62071;SDS011;48031;48.542;13.232;2023-08-17T14:33:20;4.53;;;3.90;;
62071;SDS011;48031;48.542;13.232;2023-08-17T14:37:22;4.05;;;3.85;;
62071;SDS011;48031;48.542;13.232;2023-08-17T14:41:26;4.63;;;4.23;;
62071;SDS011;48031;48.542;13.232;2023-08-17T14:45:33;5.03;;;4.63;;
62071;SDS011;48031;48.542;13.232;2023-08-17T14:49:35;4.82;;;4.43;;
62071;SDS011;48031;48.542;13.232;2023-08-17T14:53:38;4.43;;;4.10;;
62071;SDS011;48031;48.542;13.232;2023-08-17T14:57:40;3.97;;;3.65;;
62071;SDS011;48031;48.542;13.232;2023-08-17T15:01:43;4.28;;;3.88;;
62071;SDS011;48031;48.542;13.232;2023-08-17T15:05:46;3.77;;;3.40;;
62071;SDS011;48031;48.542;13.232;2023-08-17T15:09:52;4.18;;;3.78;;
62071;SDS011;48031;48.542;13.232;2023-08-17T15:13:55;4.93;;;3.10;;
62071;SDS011;48031;48.542;13.232;2023-08-17T15:17:58;3.58;;;3.30;;
62071;SDS011;48031;48.542;13.232;2023-08-17T15:22:00;3.92;;;3.60;;
62071;SDS011;48031;48.542;13.232;2023-08-17T15:26:02;3.90;;;3.60;;
62071;SDS011;48031;48.542;13.232;2023-08-17T15:30:05;4.63;;;3.97;;
62071;SDS011;48031;48.542;13.232;2023-08-17T15:34:08;4.50;;;4.10;;
62071;SDS011;48031;48.542;13.232;2023-08-17T15:38:10;3.90;;;3.50;;
62071;SDS011;48031;48.542;13.232;2023-08-17T15:42:12;5.28;;;4.45;;
62071;SDS011;48031;48.542;13.232;2023-08-17T15:46:14;3.67;;;3.30;;
62071;SDS011;48031;48.542;13.232;2023-08-17T15:50:17;4.60;;;4.20;;
62071;SDS011;48031;48.542;13.232;2023-08-17T15:54:20;4.60;;;4.20;;
62071;SDS011;48031;48.542;13.232;2023-08-17T15:58:37;6.13;;;5.60;;
62071;SDS011;48031;48.542;13.232;2023-08-17T16:02:39;5.30;;;4.80;;
62071;SDS011;48031;48.542;13.232;2023-08-17T16:06:41;5.80;;;5.40;;
62071;SDS011;48031;48.542;13.232;2023-08-17T16:10:45;6.10;;;5.57;;
62071;SDS011;48031;48.542;13.232;2023-08-17T16:14:47;5.65;;;5.22;;
62071;SDS011;48031;48.542;13.232;2023-08-17T16:18:51;5.53;;;5.13;;
62071;SDS011;48031;48.542;13.232;2023-08-17T16:22:53;4.97;;;4.60;;
62071;SDS011;48031;48.542;13.232;2023-08-17T16:26:55;5.50;;;4.97;;
62071;SDS011;48031;48.542;13.232;2023-08-17T16:30:57;5.50;;;4.65;;
62071;SDS011;48031;48.542;13.232;2023-08-17T16:35:05;4.72;;;4.43;;
62071;SDS011;48031;48.542;13.232;2023-08-17T16:39:07;4.57;;;4.25;;
62071;SDS011;48031;48.542;13.232;2023-08-17T16:43:10;4.90;;;4.50;;
62071;SDS011;48031;48.542;13.232;2023-08-17T16:47:12;4.88;;;3.78;;
62071;SDS011;48031;48.542;13.232;2023-08-17T16:51:20;4.22;;;3.47;;
62071;SDS011;48031;48.542;13.232;2023-08-17T16:55:22;4.88;;;3.45;;
62071;SDS011;48031;48.542;13.232;2023-08-17T16:59:24;4.68;;;3.90;;
62071;SDS011;48031;48.542;13.232;2023-08-17T17:03:27;4.32;;;3.92;;
62071;SDS011;48031;48.542;13.232;2023-08-17T17:07:28;4.15;;;3.85;;
62071;SDS011;48031;48.542;13.232;2023-08-17T17:11:31;4.55;;;3.67;;
62071;SDS011;48031;48.542;13.232;2023-08-17T17:15:33;4.47;;;3.85;;
62071;SDS011;48031;48.542;13.232;2023-08-17T17:19:36;3.60;;;3.30;;
62071;SDS011;48031;48.542;13.232;2023-08-17T17:23:38;3.65;;;3.35;;
62071;SDS011;48031;48.542;13.232;2023-08-17T17:27:40;3.53;;;3.28;;
62071;SDS011;48031;48.542;13.232;2023-08-17T17:31:43;4.47;;;3.72;;
62071;SDS011;48031;48.542;13.232;2023-08-17T17:35:45;4.35;;;3.95;;
62071;SDS011;48031;48.542;13.232;2023-08-17T17:39:47;5.15;;;4.65;;
62071;SDS011;48031;48.542;13.232;2023-08-17T17:43:51;9.32;;;4.75;;
62071;SDS011;48031;48.542;13.232;2023-08-17T17:47:54;5.45;;;4.78;;
62071;SDS011;48031;48.542;13.232;2023-08-17T17:51:56;5.50;;;5.00;;
62071;SDS011;48031;48.542;13.232;2023-08-17T17:55:59;6.45;;;5.53;;
62071;SDS011;48031;48.542;13.232;2023-08-17T18:00:01;6.63;;;5.53;;
62071;SDS011;48031;48.542;13.232;2023-08-17T18:04:13;5.95;;;5.38;;
62071;SDS011;48031;48.542;13.232;2023-08-17T18:08:15;5.90;;;5.03;;
62071;SDS011;48031;48.542;13.232;2023-08-17T18:12:17;6.38;;;5.20;;
62071;SDS011;48031;48.542;13.232;2023-08-17T18:16:19;7.40;;;5.60;;
62071;SDS011;48031;48.542;13.232;2023-08-17T18:20:22;8.02;;;4.93;;
62071;SDS011;48031;48.542;13.232;2023-08-17T18:24:24;5.55;;;4.63;;
62071;SDS011;48031;48.542;13.232;2023-08-17T18:28:26;5.25;;;4.68;;
62071;SDS011;48031;48.542;13.232;2023-08-17T18:32:29;5.38;;;4.30;;
62071;SDS011;48031;48.542;13.232;2023-08-17T18:36:30;4.97;;;4.20;;
62071;SDS011;48031;48.542;13.232;2023-08-17T18:40:33;4.45;;;4.05;;
62071;SDS011;48031;48.542;13.232;2023-08-17T18:44:35;4.25;;;3.20;;
62071;SDS011;48031;48.542;13.232;2023-08-17T18:48:37;3.55;;;3.20;;
62071;SDS011;48031;48.542;13.232;2023-08-17T18:52:39;3.30;;;3.00;;
62071;SDS011;48031;48.542;13.232;2023-08-17T18:56:42;4.03;;;2.90;;
62071;SDS011;48031;48.542;13.232;2023-08-17T19:00:44;2.50;;;2.30;;
62071;SDS011;48031;48.542;13.232;2023-08-17T19:04:47;3.47;;;2.20;;
62071;SDS011;48031;48.542;13.232;2023-08-17T19:08:49;3.00;;;2.22;;
62071;SDS011;48031;48.542;13.232;2023-08-17T19:12:51;2.20;;;1.98;;
62071;SDS011;48031;48.542;13.232;2023-08-17T19:16:54;2.17;;;2.00;;
62071;SDS011;48031;48.542;13.232;2023-08-17T19:20:57;2.15;;;1.90;;
62071;SDS011;48031;48.542;13.232;2023-08-17T19:24:59;2.20;;;2.00;;
62071;SDS011;48031;48.542;13.232;2023-08-17T19:29:04;3.28;;;2.00;;
62071;SDS011;48031;48.542;13.232;2023-08-17T19:33:07;2.83;;;2.15;;
62071;SDS011;48031;48.542;13.232;2023-08-17T19:37:09;3.63;;;2.28;;
62071;SDS011;48031;48.542;13.232;2023-08-17T19:41:11;4.18;;;3.00;;
62071;SDS011;48031;48.542;13.232;2023-08-17T19:45:16;2.67;;;2.47;;
62071;SDS011;48031;48.542;13.232;2023-08-17T19:49:20;3.70;;;2.90;;
62071;SDS011;48031;48.542;13.232;2023-08-17T19:53:23;4.88;;;2.50;;
62071;SDS011;48031;48.542;13.232;2023-08-17T19:57:25;2.88;;;2.40;;
62071;SDS011;48031;48.542;13.232;2023-08-17T20:01:27;4.78;;;2.00;;
62071;SDS011;48031;48.542;13.232;2023-08-17T20:05:31;3.63;;;2.00;;
62071;SDS011;48031;48.542;13.232;2023-08-17T20:09:33;2.75;;;2.05;;
62071;SDS011;48031;48.542;13.232;2023-08-17T20:13:35;2.38;;;2.13;;
62071;SDS011;48031;48.542;13.232;2023-08-17T20:17:38;2.50;;;2.30;;
62071;SDS011;48031;48.542;13.232;2023-08-17T20:21:41;2.58;;;2.38;;
62071;SDS011;48031;48.542;13.232;2023-08-17T20:25:52;2.97;;;2.30;;
62071;SDS011;48031;48.542;13.232;2023-08-17T20:29:58;3.60;;;2.58;;
62071;SDS011;48031;48.542;13.232;2023-08-17T20:34:00;3.35;;;2.95;;
62071;SDS011;48031;48.542;13.232;2023-08-17T20:38:02;3.17;;;2.60;;
62071;SDS011;48031;48.542;13.232;2023-08-17T20:42:06;2.30;;;2.10;;
62071;SDS011;48031;48.542;13.232;2023-08-17T20:46:09;5.60;;;3.67;;
62071;SDS011;48031;48.542;13.232;2023-08-17T20:50:12;5.47;;;4.10;;
62071;SDS011;48031;48.542;13.232;2023-08-17T20:54:15;5.43;;;4.40;;
62071;SDS011;48031;48.542;13.232;2023-08-17T20:58:17;5.82;;;4.07;;
62071;SDS011;48031;48.542;13.232;2023-08-17T21:02:20;4.75;;;3.65;;
62071;SDS011;48031;48.542;13.232;2023-08-17T21:06:22;4.20;;;3.17;;
62071;SDS011;48031;48.542;13.232;2023-08-17T21:10:24;3.95;;;3.45;;
62071;SDS011;48031;48.542;13.232;2023-08-17T21:14:26;3.95;;;3.28;;
62071;SDS011;48031;48.542;13.232;2023-08-17T21:18:29;2.97;;;2.67;;
62071;SDS011;48031;48.542;13.232;2023-08-17T21:22:31;2.85;;;2.40;;
62071;SDS011;48031;48.542;13.232;2023-08-17T21:26:33;3.00;;;2.08;;
62071;SDS011;48031;48.542;13.232;2023-08-17T21:30:36;2.50;;;2.30;;
62071;SDS011;48031;48.542;13.232;2023-08-17T21:34:38;3.85;;;2.65;;
62071;SDS011;48031;48.542;13.232;2023-08-17T21:38:40;7.63;;;2.65;;
62071;SDS011;48031;48.542;13.232;2023-08-17T21:42:42;5.05;;;2.90;;
62071;SDS011;48031;48.542;13.232;2023-08-17T21:47:05;4.80;;;2.90;;
62071;SDS011;48031;48.542;13.232;2023-08-17T21:51:28;3.72;;;2.33;;
62071;SDS011;48031;48.542;13.232;2023-08-17T21:55:52;3.63;;;2.50;;
62071;SDS011;48031;48.542;13.232;2023-08-17T22:00:14;5.03;;;2.33;;
62071;SDS011;48031;48.542;13.232;2023-08-17T22:04:37;5.55;;;2.13;;
62071;SDS011;48031;48.542;13.232;2023-08-17T22:08:59;3.67;;;2.50;;
62071;SDS011;48031;48.542;13.232;2023-08-17T22:13:22;1.95;;;1.63;;
62071;SDS011;48031;48.542;13.232;2023-08-17T22:17:45;2.72;;;1.90;;
62071;SDS011;48031;48.542;13.232;2023-08-17T22:22:08;2.85;;;1.67;;
62071;SDS011;48031;48.542;13.232;2023-08-17T22:26:31;2.83;;;2.08;;
62071;SDS011;48031;48.542;13.232;2023-08-17T22:31:02;2.25;;;1.60;;
62071;SDS011;48031;48.542;13.232;2023-08-17T22:35:25;4.63;;;2.20;;
62071;SDS011;48031;48.542;13.232;2023-08-17T22:39:48;3.28;;;2.53;;
62071;SDS011;48031;48.542;13.232;2023-08-17T22:44:11;5.40;;;2.50;;
62071;SDS011;48031;48.542;13.232;2023-08-17T22:48:34;4.47;;;2.75;;
62071;SDS011;48031;48.542;13.232;2023-08-17T22:52:57;3.40;;;2.90;;
62071;SDS011;48031;48.542;13.232;2023-08-17T22:57:20;3.08;;;2.50;;
62071;SDS011;48031;48.542;13.232;2023-08-17T23:01:42;2.30;;;2.10;;
62071;SDS011;48031;48.542;13.232;2023-08-17T23:06:08;1.90;;;1.80;;
62071;SDS011;48031;48.542;13.232;2023-08-17T23:10:31;2.03;;;1.83;;
62071;SDS011;48031;48.542;13.232;2023-08-17T23:14:59;2.95;;;1.83;;
62071;SDS011;48031;48.542;13.232;2023-08-17T23:19:22;2.42;;;1.70;;
62071;SDS011;48031;48.542;13.232;2023-08-17T23:23:45;2.30;;;1.88;;
62071;SDS011;48031;48.542;13.232;2023-08-17T23:28:09;2.78;;;2.35;;
62071;SDS011;48031;48.542;13.232;2023-08-17T23:32:35;2.57;;;2.37;;
62071;SDS011;48031;48.542;13.232;2023-08-17T23:36:59;2.72;;;2.42;;
62071;SDS011;48031;48.542;13.232;2023-08-17T23:41:23;2.28;;;1.95;;
62071;SDS011;48031;48.542;13.232;2023-08-17T23:45:45;2.15;;;1.95;;
62071;SDS011;48031;48.542;13.232;2023-08-17T23:50:09;1.85;;;1.75;;
62071;SDS011;48031;48.542;13.232;2023-08-17T23:54:32;2.08;;;1.88;;
62071;SDS011;48031;48.542;13.232;2023-08-17T23:58:54;3.42;;;1.98;;
